sensor_id;sensor_type;location;lat;lon;timestamp;P1;durP1;ratioP1;P2;durP2;ratioP2
57593;SDS011;43423;46.510;6.686;2024-01-16T00:01:16;3.88;;;1.77;;
57593;SDS011;43423;46.510;6.686;2024-01-16T00:03:44;2.28;;;1.38;;
57593;SDS011;43423;46.510;6.686;2024-01-16T00:06:10;2.10;;;1.20;;
57593;SDS011;43423;46.510;6.686;2024-01-16T00:08:36;3.80;;;1.33;;
57593;SDS011;43423;46.510;6.686;2024-01-16T00:11:02;4.97;;;1.73;;
57593;SDS011;43423;46.510;6.686;2024-01-16T00:13:28;5.93;;;1.40;;
57593;SDS011;43423;46.510;6.686;2024-01-16T00:15:54;4.00;;;1.63;;
57593;SDS011;43423;46.510;6.686;2024-01-16T00:18:22;4.95;;;1.40;;
57593;SDS011;43423;46.510;6.686;2024-01-16T00:20:48;3.40;;;1.48;;
57593;SDS011;43423;46.510;6.686;2024-01-16T00:23:14;4.07;;;1.70;;
57593;SDS011;43423;46.510;6.686;2024-01-16T00:25:39;2.55;;;1.10;;
57593;SDS011;43423;46.510;6.686;2024-01-16T00:28:06;4.03;;;1.42;;
57593;SDS011;43423;46.510;6.686;2024-01-16T00:30:32;2.97;;;1.63;;
57593;SDS011;43423;46.510;6.686;2024-01-16T00:32:59;5.68;;;1.08;;
57593;SDS011;43423;46.510;6.686;2024-01-16T00:35:24;5.72;;;1.50;;
57593;SDS011;43423;46.510;6.686;2024-01-16T00:37:50;4.07;;;1.55;;
57593;SDS011;43423;46.510;6.686;2024-01-16T00:40:16;3.58;;;1.50;;
57593;SDS011;43423;46.510;6.686;2024-01-16T00:42:42;2.63;;;1.33;;
57593;SDS011;43423;46.510;6.686;2024-01-16T00:45:08;3.05;;;1.50;;
57593;SDS011;43423;46.510;6.686;2024-01-16T00:47:34;4.07;;;1.25;;
57593;SDS011;43423;46.510;6.686;2024-01-16T00:49:59;3.78;;;1.80;;
57593;SDS011;43423;46.510;6.686;2024-01-16T00:52:28;3.80;;;1.35;;
57593;SDS011;43423;46.510;6.686;2024-01-16T00:54:54;4.43;;;1.58;;
57593;SDS011;43423;46.510;6.686;2024-01-16T00:57:19;3.13;;;1.20;;
57593;SDS011;43423;46.510;6.686;2024-01-16T00:59:45;3.72;;;1.33;;
57593;SDS011;43423;46.510;6.686;2024-01-16T01:02:12;3.00;;;1.33;;
57593;SDS011;43423;46.510;6.686;2024-01-16T01:04:37;4.15;;;1.35;;
57593;SDS011;43423;46.510;6.686;2024-01-16T01:07:03;2.35;;;1.40;;
57593;SDS011;43423;46.510;6.686;2024-01-16T01:09:29;2.65;;;1.85;;
57593;SDS011;43423;46.510;6.686;2024-01-16T01:11:58;1.40;;;1.30;;
57593;SDS011;43423;46.510;6.686;2024-01-16T01:14:23;3.13;;;1.30;;
57593;SDS011;43423;46.510;6.686;2024-01-16T01:16:51;2.28;;;1.23;;
57593;SDS011;43423;46.510;6.686;2024-01-16T01:19:16;2.58;;;1.40;;
57593;SDS011;43423;46.510;6.686;2024-01-16T01:21:42;3.60;;;1.50;;
57593;SDS011;43423;46.510;6.686;2024-01-16T01:24:11;3.60;;;1.45;;
57593;SDS011;43423;46.510;6.686;2024-01-16T01:26:36;2.35;;;1.33;;
57593;SDS011;43423;46.510;6.686;2024-01-16T01:29:02;2.45;;;1.52;;
57593;SDS011;43423;46.510;6.686;2024-01-16T01:31:28;4.50;;;1.55;;
57593;SDS011;43423;46.510;6.686;2024-01-16T01:33:53;3.92;;;1.20;;
57593;SDS011;43423;46.510;6.686;2024-01-16T01:36:19;2.58;;;1.83;;
57593;SDS011;43423;46.510;6.686;2024-01-16T01:38:44;4.00;;;1.38;;
57593;SDS011;43423;46.510;6.686;2024-01-16T01:41:10;3.42;;;1.98;;
57593;SDS011;43423;46.510;6.686;2024-01-16T01:43:38;4.20;;;2.00;;
57593;SDS011;43423;46.510;6.686;2024-01-16T01:46:08;3.38;;;1.80;;
57593;SDS011;43423;46.510;6.686;2024-01-16T01:48:34;6.15;;;2.92;;
57593;SDS011;43423;46.510;6.686;2024-01-16T01:51:00;4.65;;;2.85;;
57593;SDS011;43423;46.510;6.686;2024-01-16T01:53:27;5.97;;;2.35;;
57593;SDS011;43423;46.510;6.686;2024-01-16T01:55:56;5.57;;;2.38;;
57593;SDS011;43423;46.510;6.686;2024-01-16T01:58:22;4.68;;;1.67;;
57593;SDS011;43423;46.510;6.686;2024-01-16T02:00:48;6.15;;;2.00;;
57593;SDS011;43423;46.510;6.686;2024-01-16T02:03:14;7.20;;;2.50;;
57593;SDS011;43423;46.510;6.686;2024-01-16T02:05:40;4.68;;;1.98;;
57593;SDS011;43423;46.510;6.686;2024-01-16T02:08:06;6.72;;;2.67;;
57593;SDS011;43423;46.510;6.686;2024-01-16T02:10:31;4.07;;;2.03;;
57593;SDS011;43423;46.510;6.686;2024-01-16T02:12:57;6.32;;;2.20;;
57593;SDS011;43423;46.510;6.686;2024-01-16T02:15:24;6.13;;;1.80;;
57593;SDS011;43423;46.510;6.686;2024-01-16T02:17:49;7.95;;;2.00;;
57593;SDS011;43423;46.510;6.686;2024-01-16T02:20:15;5.00;;;1.83;;
57593;SDS011;43423;46.510;6.686;2024-01-16T02:22:42;4.85;;;1.58;;
57593;SDS011;43423;46.510;6.686;2024-01-16T02:25:13;3.97;;;1.60;;
57593;SDS011;43423;46.510;6.686;2024-01-16T02:27:39;3.63;;;2.30;;
57593;SDS011;43423;46.510;6.686;2024-01-16T02:30:05;4.30;;;1.85;;
57593;SDS011;43423;46.510;6.686;2024-01-16T02:32:31;5.88;;;2.50;;
57593;SDS011;43423;46.510;6.686;2024-01-16T02:34:57;4.13;;;1.95;;
57593;SDS011;43423;46.510;6.686;2024-01-16T02:37:23;2.40;;;1.50;;
57593;SDS011;43423;46.510;6.686;2024-01-16T02:39:49;4.65;;;1.67;;
57593;SDS011;43423;46.510;6.686;2024-01-16T02:42:15;5.65;;;2.00;;
57593;SDS011;43423;46.510;6.686;2024-01-16T02:44:40;4.03;;;2.30;;
57593;SDS011;43423;46.510;6.686;2024-01-16T02:47:06;4.03;;;2.15;;
57593;SDS011;43423;46.510;6.686;2024-01-16T02:49:32;6.78;;;2.08;;
57593;SDS011;43423;46.510;6.686;2024-01-16T02:51:58;5.60;;;1.80;;
57593;SDS011;43423;46.510;6.686;2024-01-16T02:54:24;3.80;;;1.90;;
57593;SDS011;43423;46.510;6.686;2024-01-16T02:56:50;3.78;;;1.50;;
57593;SDS011;43423;46.510;6.686;2024-01-16T02:59:15;5.72;;;1.52;;
57593;SDS011;43423;46.510;6.686;2024-01-16T03:01:42;3.03;;;1.70;;
57593;SDS011;43423;46.510;6.686;2024-01-16T03:04:08;3.08;;;1.30;;
57593;SDS011;43423;46.510;6.686;2024-01-16T03:06:34;4.18;;;1.88;;
57593;SDS011;43423;46.510;6.686;2024-01-16T03:09:00;5.30;;;1.95;;
57593;SDS011;43423;46.510;6.686;2024-01-16T03:11:25;4.55;;;1.67;;
57593;SDS011;43423;46.510;6.686;2024-01-16T03:13:51;4.35;;;1.77;;
57593;SDS011;43423;46.510;6.686;2024-01-16T03:16:18;5.75;;;1.33;;
57593;SDS011;43423;46.510;6.686;2024-01-16T03:18:44;2.88;;;2.10;;
57593;SDS011;43423;46.510;6.686;2024-01-16T03:21:10;5.22;;;2.33;;
57593;SDS011;43423;46.510;6.686;2024-01-16T03:23:36;3.30;;;1.70;;
57593;SDS011;43423;46.510;6.686;2024-01-16T03:26:02;9.30;;;1.70;;
57593;SDS011;43423;46.510;6.686;2024-01-16T03:28:29;4.88;;;1.75;;
57593;SDS011;43423;46.510;6.686;2024-01-16T03:30:54;4.35;;;1.42;;
57593;SDS011;43423;46.510;6.686;2024-01-16T03:33:20;6.30;;;2.28;;
57593;SDS011;43423;46.510;6.686;2024-01-16T03:35:45;4.28;;;2.03;;
57593;SDS011;43423;46.510;6.686;2024-01-16T03:38:13;2.78;;;1.52;;
57593;SDS011;43423;46.510;6.686;2024-01-16T03:40:38;5.10;;;2.20;;
57593;SDS011;43423;46.510;6.686;2024-01-16T03:43:04;4.85;;;1.35;;
57593;SDS011;43423;46.510;6.686;2024-01-16T03:45:33;5.18;;;1.83;;
57593;SDS011;43423;46.510;6.686;2024-01-16T03:47:58;3.65;;;2.45;;
57593;SDS011;43423;46.510;6.686;2024-01-16T03:50:24;4.30;;;1.45;;
57593;SDS011;43423;46.510;6.686;2024-01-16T03:52:49;3.05;;;1.58;;
57593;SDS011;43423;46.510;6.686;2024-01-16T03:55:15;5.15;;;1.90;;
57593;SDS011;43423;46.510;6.686;2024-01-16T03:57:41;5.35;;;2.15;;
57593;SDS011;43423;46.510;6.686;2024-01-16T04:00:07;5.28;;;2.40;;
57593;SDS011;43423;46.510;6.686;2024-01-16T04:02:37;6.25;;;2.33;;
57593;SDS011;43423;46.510;6.686;2024-01-16T04:05:03;4.50;;;2.17;;
57593;SDS011;43423;46.510;6.686;2024-01-16T04:07:29;4.55;;;2.00;;
57593;SDS011;43423;46.510;6.686;2024-01-16T04:09:54;4.32;;;1.70;;
57593;SDS011;43423;46.510;6.686;2024-01-16T04:12:19;6.00;;;2.08;;
57593;SDS011;43423;46.510;6.686;2024-01-16T04:14:45;5.75;;;2.45;;
57593;SDS011;43423;46.510;6.686;2024-01-16T04:17:11;6.93;;;2.70;;
57593;SDS011;43423;46.510;6.686;2024-01-16T04:19:36;4.45;;;2.30;;
57593;SDS011;43423;46.510;6.686;2024-01-16T04:22:02;4.45;;;2.42;;
57593;SDS011;43423;46.510;6.686;2024-01-16T04:24:30;5.18;;;2.13;;
57593;SDS011;43423;46.510;6.686;2024-01-16T04:26:56;6.35;;;2.50;;
57593;SDS011;43423;46.510;6.686;2024-01-16T04:29:22;4.53;;;2.47;;
57593;SDS011;43423;46.510;6.686;2024-01-16T04:31:48;6.93;;;2.55;;
57593;SDS011;43423;46.510;6.686;2024-01-16T04:34:13;4.65;;;1.98;;
57593;SDS011;43423;46.510;6.686;2024-01-16T04:36:39;4.38;;;2.03;;
57593;SDS011;43423;46.510;6.686;2024-01-16T04:39:05;4.20;;;1.73;;
57593;SDS011;43423;46.510;6.686;2024-01-16T04:41:30;5.00;;;2.28;;
57593;SDS011;43423;46.510;6.686;2024-01-16T04:43:56;8.80;;;2.22;;
57593;SDS011;43423;46.510;6.686;2024-01-16T04:46:21;8.23;;;2.53;;
57593;SDS011;43423;46.510;6.686;2024-01-16T04:48:47;5.30;;;2.22;;
57593;SDS011;43423;46.510;6.686;2024-01-16T04:51:13;4.28;;;1.95;;
57593;SDS011;43423;46.510;6.686;2024-01-16T04:53:38;4.38;;;2.70;;
57593;SDS011;43423;46.510;6.686;2024-01-16T04:56:05;5.28;;;2.20;;
57593;SDS011;43423;46.510;6.686;2024-01-16T04:58:31;5.43;;;2.10;;
57593;SDS011;43423;46.510;6.686;2024-01-16T05:00:56;3.10;;;1.92;;
57593;SDS011;43423;46.510;6.686;2024-01-16T05:03:23;7.60;;;3.38;;
57593;SDS011;43423;46.510;6.686;2024-01-16T05:05:48;2.33;;;1.85;;
57593;SDS011;43423;46.510;6.686;2024-01-16T05:08:14;5.78;;;2.10;;
57593;SDS011;43423;46.510;6.686;2024-01-16T05:10:39;6.72;;;2.28;;
57593;SDS011;43423;46.510;6.686;2024-01-16T05:13:05;9.32;;;1.95;;
57593;SDS011;43423;46.510;6.686;2024-01-16T05:15:30;6.80;;;2.15;;
57593;SDS011;43423;46.510;6.686;2024-01-16T05:17:56;4.88;;;2.05;;
57593;SDS011;43423;46.510;6.686;2024-01-16T05:20:22;7.03;;;2.50;;
57593;SDS011;43423;46.510;6.686;2024-01-16T05:22:48;4.97;;;2.17;;
57593;SDS011;43423;46.510;6.686;2024-01-16T05:25:13;3.67;;;2.30;;
57593;SDS011;43423;46.510;6.686;2024-01-16T05:27:39;5.82;;;2.63;;
57593;SDS011;43423;46.510;6.686;2024-01-16T05:30:05;4.97;;;2.30;;
57593;SDS011;43423;46.510;6.686;2024-01-16T05:32:32;10.57;;;3.10;;
57593;SDS011;43423;46.510;6.686;2024-01-16T05:34:57;5.78;;;2.60;;
57593;SDS011;43423;46.510;6.686;2024-01-16T05:37:23;5.32;;;2.47;;
57593;SDS011;43423;46.510;6.686;2024-01-16T05:39:49;9.63;;;2.92;;
57593;SDS011;43423;46.510;6.686;2024-01-16T05:42:14;11.00;;;2.70;;
57593;SDS011;43423;46.510;6.686;2024-01-16T05:44:40;3.63;;;2.25;;
57593;SDS011;43423;46.510;6.686;2024-01-16T05:47:06;5.22;;;2.00;;
57593;SDS011;43423;46.510;6.686;2024-01-16T05:49:32;6.80;;;3.00;;
57593;SDS011;43423;46.510;6.686;2024-01-16T05:51:58;4.82;;;2.40;;
57593;SDS011;43423;46.510;6.686;2024-01-16T05:54:23;4.75;;;2.75;;
57593;SDS011;43423;46.510;6.686;2024-01-16T05:56:49;7.43;;;3.28;;
57593;SDS011;43423;46.510;6.686;2024-01-16T05:59:15;6.25;;;2.60;;
57593;SDS011;43423;46.510;6.686;2024-01-16T06:01:41;9.45;;;3.00;;
57593;SDS011;43423;46.510;6.686;2024-01-16T06:04:07;5.53;;;2.60;;
57593;SDS011;43423;46.510;6.686;2024-01-16T06:06:32;5.13;;;2.53;;
57593;SDS011;43423;46.510;6.686;2024-01-16T06:08:58;6.80;;;2.63;;
57593;SDS011;43423;46.510;6.686;2024-01-16T06:11:31;5.07;;;3.13;;
57593;SDS011;43423;46.510;6.686;2024-01-16T06:13:58;9.82;;;2.70;;
57593;SDS011;43423;46.510;6.686;2024-01-16T06:16:25;8.07;;;2.38;;
57593;SDS011;43423;46.510;6.686;2024-01-16T06:18:50;6.25;;;2.25;;
57593;SDS011;43423;46.510;6.686;2024-01-16T06:21:16;5.82;;;2.53;;
57593;SDS011;43423;46.510;6.686;2024-01-16T06:23:43;5.13;;;2.65;;
57593;SDS011;43423;46.510;6.686;2024-01-16T06:26:09;5.20;;;2.35;;
57593;SDS011;43423;46.510;6.686;2024-01-16T06:28:34;6.43;;;2.70;;
57593;SDS011;43423;46.510;6.686;2024-01-16T06:31:00;3.55;;;2.15;;
57593;SDS011;43423;46.510;6.686;2024-01-16T06:33:26;4.28;;;2.33;;
57593;SDS011;43423;46.510;6.686;2024-01-16T06:35:53;4.60;;;1.77;;
57593;SDS011;43423;46.510;6.686;2024-01-16T06:38:20;5.07;;;1.98;;
57593;SDS011;43423;46.510;6.686;2024-01-16T06:40:45;2.75;;;1.73;;
57593;SDS011;43423;46.510;6.686;2024-01-16T06:43:11;4.68;;;1.88;;
57593;SDS011;43423;46.510;6.686;2024-01-16T06:45:40;7.50;;;1.40;;
57593;SDS011;43423;46.510;6.686;2024-01-16T06:48:05;3.35;;;1.25;;
57593;SDS011;43423;46.510;6.686;2024-01-16T06:50:31;1.60;;;1.30;;
57593;SDS011;43423;46.510;6.686;2024-01-16T06:52:56;2.47;;;1.55;;
57593;SDS011;43423;46.510;6.686;2024-01-16T06:55:22;3.70;;;1.85;;
57593;SDS011;43423;46.510;6.686;2024-01-16T06:57:48;2.35;;;1.20;;
57593;SDS011;43423;46.510;6.686;2024-01-16T07:00:14;4.20;;;1.92;;
57593;SDS011;43423;46.510;6.686;2024-01-16T07:02:40;4.53;;;1.50;;
57593;SDS011;43423;46.510;6.686;2024-01-16T07:05:09;2.05;;;1.27;;
57593;SDS011;43423;46.510;6.686;2024-01-16T07:07:35;4.57;;;1.75;;
57593;SDS011;43423;46.510;6.686;2024-01-16T07:10:00;1.58;;;1.02;;
57593;SDS011;43423;46.510;6.686;2024-01-16T07:12:26;2.03;;;1.10;;
57593;SDS011;43423;46.510;6.686;2024-01-16T07:14:52;2.85;;;1.40;;
57593;SDS011;43423;46.510;6.686;2024-01-16T07:17:17;3.53;;;1.30;;
57593;SDS011;43423;46.510;6.686;2024-01-16T07:19:43;3.80;;;1.48;;
57593;SDS011;43423;46.510;6.686;2024-01-16T07:22:08;1.77;;;1.13;;
57593;SDS011;43423;46.510;6.686;2024-01-16T07:24:34;5.40;;;2.03;;
57593;SDS011;43423;46.510;6.686;2024-01-16T07:27:00;7.05;;;1.85;;
57593;SDS011;43423;46.510;6.686;2024-01-16T07:29:26;3.30;;;1.67;;
57593;SDS011;43423;46.510;6.686;2024-01-16T07:31:51;1.58;;;1.10;;
57593;SDS011;43423;46.510;6.686;2024-01-16T07:34:18;3.42;;;1.95;;
57593;SDS011;43423;46.510;6.686;2024-01-16T07:36:47;4.13;;;1.38;;
57593;SDS011;43423;46.510;6.686;2024-01-16T07:39:13;2.30;;;1.90;;
57593;SDS011;43423;46.510;6.686;2024-01-16T07:41:39;3.17;;;1.10;;
57593;SDS011;43423;46.510;6.686;2024-01-16T07:44:05;3.97;;;1.73;;
57593;SDS011;43423;46.510;6.686;2024-01-16T07:46:31;3.92;;;2.15;;
57593;SDS011;43423;46.510;6.686;2024-01-16T07:48:56;4.57;;;2.05;;
57593;SDS011;43423;46.510;6.686;2024-01-16T07:51:22;4.10;;;1.95;;
57593;SDS011;43423;46.510;6.686;2024-01-16T07:53:50;2.97;;;1.90;;
57593;SDS011;43423;46.510;6.686;2024-01-16T07:56:17;4.88;;;2.17;;
57593;SDS011;43423;46.510;6.686;2024-01-16T07:58:42;2.75;;;2.13;;
57593;SDS011;43423;46.510;6.686;2024-01-16T08:01:08;2.15;;;1.60;;
57593;SDS011;43423;46.510;6.686;2024-01-16T08:03:34;4.25;;;1.60;;
57593;SDS011;43423;46.510;6.686;2024-01-16T08:05:59;4.13;;;2.10;;
57593;SDS011;43423;46.510;6.686;2024-01-16T08:08:25;4.00;;;1.98;;
57593;SDS011;43423;46.510;6.686;2024-01-16T08:10:51;3.38;;;1.80;;
57593;SDS011;43423;46.510;6.686;2024-01-16T08:13:16;3.03;;;1.50;;
57593;SDS011;43423;46.510;6.686;2024-01-16T08:15:42;3.40;;;1.30;;
57593;SDS011;43423;46.510;6.686;2024-01-16T08:18:08;5.80;;;2.05;;
57593;SDS011;43423;46.510;6.686;2024-01-16T08:20:33;6.78;;;2.22;;
57593;SDS011;43423;46.510;6.686;2024-01-16T08:22:59;3.53;;;1.63;;
57593;SDS011;43423;46.510;6.686;2024-01-16T08:25:24;4.30;;;2.05;;
57593;SDS011;43423;46.510;6.686;2024-01-16T08:27:50;3.33;;;1.90;;
57593;SDS011;43423;46.510;6.686;2024-01-16T08:30:15;2.65;;;1.98;;
57593;SDS011;43423;46.510;6.686;2024-01-16T08:32:41;4.40;;;1.98;;
57593;SDS011;43423;46.510;6.686;2024-01-16T08:35:07;4.65;;;2.45;;
57593;SDS011;43423;46.510;6.686;2024-01-16T08:37:34;4.95;;;2.00;;
57593;SDS011;43423;46.510;6.686;2024-01-16T08:39:59;4.75;;;1.88;;
57593;SDS011;43423;46.510;6.686;2024-01-16T08:42:25;4.53;;;1.88;;
57593;SDS011;43423;46.510;6.686;2024-01-16T08:44:51;2.20;;;1.67;;
57593;SDS011;43423;46.510;6.686;2024-01-16T08:47:17;2.80;;;1.70;;
57593;SDS011;43423;46.510;6.686;2024-01-16T08:49:42;5.05;;;2.00;;
57593;SDS011;43423;46.510;6.686;2024-01-16T08:52:09;2.97;;;1.77;;
57593;SDS011;43423;46.510;6.686;2024-01-16T08:54:35;4.70;;;1.92;;
57593;SDS011;43423;46.510;6.686;2024-01-16T08:57:01;2.67;;;1.92;;
57593;SDS011;43423;46.510;6.686;2024-01-16T08:59:26;5.13;;;2.28;;
57593;SDS011;43423;46.510;6.686;2024-01-16T09:01:53;5.35;;;2.15;;
57593;SDS011;43423;46.510;6.686;2024-01-16T09:04:19;2.10;;;1.77;;
57593;SDS011;43423;46.510;6.686;2024-01-16T09:06:44;4.25;;;2.50;;
57593;SDS011;43423;46.510;6.686;2024-01-16T09:09:11;2.88;;;2.20;;
57593;SDS011;43423;46.510;6.686;2024-01-16T09:11:38;4.07;;;2.63;;
57593;SDS011;43423;46.510;6.686;2024-01-16T09:14:03;5.38;;;2.03;;
57593;SDS011;43423;46.510;6.686;2024-01-16T09:16:29;7.05;;;1.95;;
57593;SDS011;43423;46.510;6.686;2024-01-16T09:18:54;4.60;;;2.00;;
57593;SDS011;43423;46.510;6.686;2024-01-16T09:21:20;3.15;;;1.77;;
57593;SDS011;43423;46.510;6.686;2024-01-16T09:23:46;3.70;;;2.30;;
57593;SDS011;43423;46.510;6.686;2024-01-16T09:26:12;4.00;;;1.98;;
57593;SDS011;43423;46.510;6.686;2024-01-16T09:28:37;2.30;;;1.67;;
57593;SDS011;43423;46.510;6.686;2024-01-16T09:31:03;4.50;;;2.15;;
57593;SDS011;43423;46.510;6.686;2024-01-16T09:33:30;6.70;;;3.47;;
57593;SDS011;43423;46.510;6.686;2024-01-16T09:35:56;6.88;;;3.35;;
57593;SDS011;43423;46.510;6.686;2024-01-16T09:38:22;11.02;;;3.17;;
57593;SDS011;43423;46.510;6.686;2024-01-16T09:40:47;6.95;;;2.58;;
57593;SDS011;43423;46.510;6.686;2024-01-16T09:43:13;4.10;;;2.50;;
57593;SDS011;43423;46.510;6.686;2024-01-16T09:45:40;6.03;;;2.58;;
57593;SDS011;43423;46.510;6.686;2024-01-16T09:48:05;4.85;;;2.78;;
57593;SDS011;43423;46.510;6.686;2024-01-16T09:50:33;5.53;;;2.72;;
57593;SDS011;43423;46.510;6.686;2024-01-16T09:52:59;6.55;;;3.05;;
57593;SDS011;43423;46.510;6.686;2024-01-16T09:55:25;5.25;;;2.28;;
57593;SDS011;43423;46.510;6.686;2024-01-16T09:57:51;4.57;;;2.33;;
57593;SDS011;43423;46.510;6.686;2024-01-16T10:00:21;6.22;;;2.60;;
57593;SDS011;43423;46.510;6.686;2024-01-16T10:02:49;7.15;;;3.45;;
57593;SDS011;43423;46.510;6.686;2024-01-16T10:05:15;5.85;;;2.78;;
57593;SDS011;43423;46.510;6.686;2024-01-16T10:07:41;8.30;;;4.03;;
57593;SDS011;43423;46.510;6.686;2024-01-16T10:10:11;6.35;;;2.78;;
57593;SDS011;43423;46.510;6.686;2024-01-16T10:12:37;8.13;;;2.67;;
57593;SDS011;43423;46.510;6.686;2024-01-16T10:15:07;5.10;;;3.05;;
57593;SDS011;43423;46.510;6.686;2024-01-16T10:17:36;8.23;;;3.33;;
57593;SDS011;43423;46.510;6.686;2024-01-16T10:20:09;8.10;;;3.47;;
57593;SDS011;43423;46.510;6.686;2024-01-16T10:22:38;12.50;;;4.00;;
57593;SDS011;43423;46.510;6.686;2024-01-16T10:25:06;11.90;;;4.00;;
57593;SDS011;43423;46.510;6.686;2024-01-16T10:27:33;6.68;;;3.67;;
57593;SDS011;43423;46.510;6.686;2024-01-16T10:29:59;7.93;;;3.20;;
57593;SDS011;43423;46.510;6.686;2024-01-16T10:32:32;4.80;;;2.97;;
57593;SDS011;43423;46.510;6.686;2024-01-16T10:35:01;7.53;;;4.05;;
57593;SDS011;43423;46.510;6.686;2024-01-16T10:37:50;8.45;;;2.97;;
57593;SDS011;43423;46.510;6.686;2024-01-16T10:40:17;6.18;;;4.22;;
57593;SDS011;43423;46.510;6.686;2024-01-16T10:42:44;7.93;;;3.88;;
57593;SDS011;43423;46.510;6.686;2024-01-16T10:45:18;10.75;;;4.50;;
57593;SDS011;43423;46.510;6.686;2024-01-16T10:47:45;8.63;;;4.00;;
57593;SDS011;43423;46.510;6.686;2024-01-16T10:50:11;13.73;;;4.45;;
57593;SDS011;43423;46.510;6.686;2024-01-16T10:52:41;9.60;;;4.07;;
57593;SDS011;43423;46.510;6.686;2024-01-16T10:55:18;11.35;;;3.55;;
57593;SDS011;43423;46.510;6.686;2024-01-16T10:57:47;7.28;;;3.67;;
57593;SDS011;43423;46.510;6.686;2024-01-16T11:00:15;7.63;;;3.55;;
57593;SDS011;43423;46.510;6.686;2024-01-16T11:02:48;9.35;;;3.97;;
57593;SDS011;43423;46.510;6.686;2024-01-16T11:05:19;8.93;;;3.78;;
57593;SDS011;43423;46.510;6.686;2024-01-16T11:07:46;9.10;;;3.67;;
57593;SDS011;43423;46.510;6.686;2024-01-16T11:10:12;8.82;;;4.13;;
57593;SDS011;43423;46.510;6.686;2024-01-16T11:12:38;9.43;;;4.13;;
57593;SDS011;43423;46.510;6.686;2024-01-16T11:15:07;5.88;;;2.67;;
57593;SDS011;43423;46.510;6.686;2024-01-16T11:17:37;9.02;;;3.53;;
57593;SDS011;43423;46.510;6.686;2024-01-16T11:20:05;7.50;;;3.22;;
57593;SDS011;43423;46.510;6.686;2024-01-16T11:22:38;11.73;;;3.97;;
57593;SDS011;43423;46.510;6.686;2024-01-16T11:27:39;5.15;;;3.00;;
57593;SDS011;43423;46.510;6.686;2024-01-16T11:30:06;5.10;;;2.60;;
57593;SDS011;43423;46.510;6.686;2024-01-16T11:32:37;4.85;;;3.00;;
57593;SDS011;43423;46.510;6.686;2024-01-16T11:35:08;5.03;;;2.40;;
57593;SDS011;43423;46.510;6.686;2024-01-16T11:37:35;7.65;;;2.55;;
57593;SDS011;43423;46.510;6.686;2024-01-16T11:42:47;4.93;;;2.40;;
57593;SDS011;43423;46.510;6.686;2024-01-16T11:48:07;5.00;;;2.60;;
57593;SDS011;43423;46.510;6.686;2024-01-16T11:50:37;5.50;;;2.13;;
57593;SDS011;43423;46.510;6.686;2024-01-16T11:53:02;5.22;;;2.08;;
57593;SDS011;43423;46.510;6.686;2024-01-16T11:55:33;4.80;;;2.17;;
57593;SDS011;43423;46.510;6.686;2024-01-16T12:00:55;5.50;;;2.60;;
57593;SDS011;43423;46.510;6.686;2024-01-16T12:03:22;6.15;;;2.75;;
57593;SDS011;43423;46.510;6.686;2024-01-16T12:05:55;4.47;;;2.20;;
57593;SDS011;43423;46.510;6.686;2024-01-16T12:08:21;5.57;;;3.05;;
57593;SDS011;43423;46.510;6.686;2024-01-16T12:10:48;4.10;;;2.28;;
57593;SDS011;43423;46.510;6.686;2024-01-16T12:13:14;5.32;;;2.55;;
57593;SDS011;43423;46.510;6.686;2024-01-16T12:15:40;6.30;;;2.88;;
57593;SDS011;43423;46.510;6.686;2024-01-16T12:18:06;3.38;;;2.30;;
57593;SDS011;43423;46.510;6.686;2024-01-16T12:20:33;3.95;;;2.55;;
57593;SDS011;43423;46.510;6.686;2024-01-16T12:23:02;6.00;;;3.05;;
57593;SDS011;43423;46.510;6.686;2024-01-16T12:25:30;6.45;;;3.38;;
57593;SDS011;43423;46.510;6.686;2024-01-16T12:28:00;5.88;;;3.25;;
57593;SDS011;43423;46.510;6.686;2024-01-16T12:30:29;6.88;;;2.92;;
57593;SDS011;43423;46.510;6.686;2024-01-16T12:33:05;5.97;;;2.47;;
57593;SDS011;43423;46.510;6.686;2024-01-16T12:38:01;5.18;;;2.80;;
57593;SDS011;43423;46.510;6.686;2024-01-16T12:40:28;5.72;;;2.70;;
57593;SDS011;43423;46.510;6.686;2024-01-16T12:42:53;5.10;;;2.63;;
57593;SDS011;43423;46.510;6.686;2024-01-16T12:45:20;8.57;;;3.33;;
57593;SDS011;43423;46.510;6.686;2024-01-16T12:47:50;5.38;;;2.50;;
57593;SDS011;43423;46.510;6.686;2024-01-16T12:50:21;5.20;;;3.10;;
57593;SDS011;43423;46.510;6.686;2024-01-16T12:52:48;7.20;;;3.08;;
57593;SDS011;43423;46.510;6.686;2024-01-16T12:55:15;5.30;;;2.70;;
57593;SDS011;43423;46.510;6.686;2024-01-16T12:57:41;5.70;;;3.55;;
57593;SDS011;43423;46.510;6.686;2024-01-16T13:00:22;6.80;;;2.65;;
57593;SDS011;43423;46.510;6.686;2024-01-16T13:02:50;9.43;;;2.75;;
57593;SDS011;43423;46.510;6.686;2024-01-16T13:05:17;5.15;;;3.22;;
57593;SDS011;43423;46.510;6.686;2024-01-16T13:07:43;5.80;;;3.20;;
57593;SDS011;43423;46.510;6.686;2024-01-16T13:10:09;6.20;;;3.10;;
57593;SDS011;43423;46.510;6.686;2024-01-16T13:12:43;4.60;;;2.80;;
57593;SDS011;43423;46.510;6.686;2024-01-16T13:15:09;7.20;;;3.17;;
57593;SDS011;43423;46.510;6.686;2024-01-16T13:17:36;8.15;;;4.05;;
57593;SDS011;43423;46.510;6.686;2024-01-16T13:20:02;5.40;;;3.58;;
57593;SDS011;43423;46.510;6.686;2024-01-16T13:22:34;4.70;;;3.00;;
57593;SDS011;43423;46.510;6.686;2024-01-16T13:25:00;5.53;;;3.50;;
57593;SDS011;43423;46.510;6.686;2024-01-16T13:27:26;6.43;;;3.53;;
57593;SDS011;43423;46.510;6.686;2024-01-16T13:29:52;10.23;;;4.50;;
57593;SDS011;43423;46.510;6.686;2024-01-16T13:32:17;7.53;;;3.70;;
57593;SDS011;43423;46.510;6.686;2024-01-16T13:34:43;9.35;;;4.40;;
57593;SDS011;43423;46.510;6.686;2024-01-16T13:37:15;6.97;;;3.88;;
57593;SDS011;43423;46.510;6.686;2024-01-16T13:39:46;6.57;;;4.00;;
57593;SDS011;43423;46.510;6.686;2024-01-16T13:42:12;10.50;;;3.60;;
57593;SDS011;43423;46.510;6.686;2024-01-16T13:44:37;7.97;;;4.53;;
57593;SDS011;43423;46.510;6.686;2024-01-16T13:47:04;9.20;;;4.30;;
57593;SDS011;43423;46.510;6.686;2024-01-16T13:49:30;7.00;;;4.40;;
57593;SDS011;43423;46.510;6.686;2024-01-16T13:51:55;6.35;;;3.75;;
57593;SDS011;43423;46.510;6.686;2024-01-16T13:54:21;9.30;;;5.13;;
57593;SDS011;43423;46.510;6.686;2024-01-16T13:56:47;12.13;;;4.93;;
57593;SDS011;43423;46.510;6.686;2024-01-16T13:59:12;9.60;;;5.10;;
57593;SDS011;43423;46.510;6.686;2024-01-16T14:01:38;10.07;;;5.15;;
57593;SDS011;43423;46.510;6.686;2024-01-16T14:04:04;9.23;;;5.28;;
57593;SDS011;43423;46.510;6.686;2024-01-16T14:06:30;10.60;;;5.22;;
57593;SDS011;43423;46.510;6.686;2024-01-16T14:08:56;10.73;;;5.07;;
57593;SDS011;43423;46.510;6.686;2024-01-16T14:11:21;9.70;;;5.45;;
57593;SDS011;43423;46.510;6.686;2024-01-16T14:13:47;10.98;;;5.25;;
57593;SDS011;43423;46.510;6.686;2024-01-16T14:16:13;9.93;;;4.82;;
57593;SDS011;43423;46.510;6.686;2024-01-16T14:18:39;10.38;;;4.22;;
57593;SDS011;43423;46.510;6.686;2024-01-16T14:21:04;11.35;;;4.72;;
57593;SDS011;43423;46.510;6.686;2024-01-16T14:23:30;8.25;;;4.72;;
57593;SDS011;43423;46.510;6.686;2024-01-16T14:25:56;10.15;;;5.78;;
57593;SDS011;43423;46.510;6.686;2024-01-16T14:28:21;8.15;;;4.57;;
57593;SDS011;43423;46.510;6.686;2024-01-16T14:30:51;10.68;;;5.22;;
57593;SDS011;43423;46.510;6.686;2024-01-16T14:33:17;10.15;;;5.32;;
57593;SDS011;43423;46.510;6.686;2024-01-16T14:35:42;10.90;;;5.70;;
57593;SDS011;43423;46.510;6.686;2024-01-16T14:38:08;9.55;;;5.20;;
57593;SDS011;43423;46.510;6.686;2024-01-16T14:40:33;8.25;;;4.70;;
57593;SDS011;43423;46.510;6.686;2024-01-16T14:42:59;11.70;;;4.97;;
57593;SDS011;43423;46.510;6.686;2024-01-16T14:45:29;6.43;;;4.85;;
57593;SDS011;43423;46.510;6.686;2024-01-16T14:47:56;9.77;;;4.55;;
57593;SDS011;43423;46.510;6.686;2024-01-16T14:50:23;8.13;;;4.68;;
57593;SDS011;43423;46.510;6.686;2024-01-16T14:52:49;9.73;;;4.97;;
57593;SDS011;43423;46.510;6.686;2024-01-16T14:55:16;8.55;;;4.85;;
57593;SDS011;43423;46.510;6.686;2024-01-16T14:57:42;10.05;;;4.60;;